Monday, May 30, 2016, 6:06 PM EDT

KFYJ, West Point, Middle Peninsula Regional Airport

Location: Shacklefords, VA, United States Lat: 37.521
Local Time: 6:06 PM EDT (22:06 GMT) Lon: -76.764
Time Zone: US/Eastern Elev: 22 ft

Show me the last for .
Show Decoded

2016-05-30 17:35 METAR KFYJ 302135Z AUTO 13006KT 7SM SCT006 BKN039 OVC046 22/21 A2999 RMK AO2
                 P0002 T02150207 =
2016-05-30 17:15 METAR KFYJ 302115Z AUTO 14004KT 10SM BKN006 BKN034 OVC049 22/21 A2999 RMK AO2
                 T02160210 =
2016-05-30 16:55 METAR KFYJ 302055Z AUTO 13005KT 7SM SCT006 BKN047 OVC060 22/21 A2999 RMK AO2
                 P0003 60006 T02170210 =
2016-05-30 16:35 METAR KFYJ 302035Z AUTO 14009KT 10SM BKN006 BKN024 OVC090 22/21 A2999 RMK AO2
                 T02210212 =
2016-05-30 16:15 METAR KFYJ 302015Z AUTO 13006KT 10SM SCT006 SCT060 OVC090 22/21 A2999 RMK AO2
                 T02220213 =
2016-05-30 15:55 METAR KFYJ 301955Z AUTO 10008KT 5SM SCT021 SCT033 OVC070 23/22 A2999 RMK AO2
                 P0003 T02260216 =
2016-05-30 15:35 METAR KFYJ 301935Z AUTO 10004KT 5SM SCT023 BKN033 OVC070 23/21 A3001 RMK AO2
                 P0001 T02270212 =
2016-05-30 15:15 METAR KFYJ 301915Z AUTO 00000KT 10SM OVC070 23/22 A3001 RMK AO2 T02320215 =
2016-05-30 14:55 METAR KFYJ 301855Z AUTO 09003KT 7SM SCT014 SCT027 OVC070 23/21 A3000 RMK AO2
                 T02320214 =
2016-05-30 14:35 METAR KFYJ 301835Z AUTO 11004KT 10SM BKN013 BKN060 OVC080 24/21 A3000 RMK AO2
                 T02360214 =
2016-05-30 14:15 METAR KFYJ 301815Z AUTO 11004KT 10SM SCT013 OVC090 24/22 A3000 RMK AO2 T02380217
                 =
2016-05-30 13:55 METAR KFYJ 301755Z AUTO 13005KT 10SM SCT009 SCT075 OVC090 24/22 A3000 RMK AO2
                 P0001 60013 T02360216 10236 20227 =
2016-05-30 13:35 METAR KFYJ 301735Z AUTO 12003KT 10SM SCT009 SCT029 OVC090 23/22 A3000 RMK AO2
                 P0001 T02320216 =
2016-05-30 13:20 METAR KFYJ 301720Z AUTO 13004KT 10SM SCT009 BKN070 OVC090 24/22 A3001 RMK AO2
                 P0001 T02350220 =
2016-05-30 12:55 METAR KFYJ 301655Z AUTO 14005KT 10SM SCT007 BKN050 OVC070 23/22 A3001 RMK AO2
                 T02300219 =
2016-05-30 12:35 METAR KFYJ 301635Z AUTO 15006KT 10SM SCT007 BKN060 OVC070 23/22 A3002 RMK AO2
                 T02300221 =
2016-05-30 12:15 METAR KFYJ 301615Z AUTO 14003KT 10SM SCT005 BKN045 OVC080 23/22 A3002 RMK AO2
                 T02300221 =
2016-05-30 11:55 METAR KFYJ 301555Z AUTO 00000KT 10SM SCT003 BKN029 OVC070 23/22 A3003 RMK AO2
                 P0007 T02280221 =
2016-05-30 11:35 METAR KFYJ 301535Z AUTO 13003KT 4SM SCT003 BKN037 OVC044 23/22 A3003 RMK AO2
                 P0007 T02270220 =
2016-05-30 11:15 METAR KFYJ 301515Z AUTO 00000KT 5SM SCT015 BKN048 OVC100 23/22 A3003 RMK AO2
                 P0001 T02270218 =
2016-05-30 10:55 METAR KFYJ 301455Z AUTO 13003KT 10SM SCT021 BKN060 OVC100 23/22 A3003 RMK AO2
                 P0001 60005 T02300221 =
2016-05-30 10:35 METAR KFYJ 301435Z AUTO 13004KT 10SM SCT003 BKN036 OVC060 23/22 A3003 RMK AO2
                 P0001 T02300223 =
2016-05-30 10:15 METAR KFYJ 301415Z AUTO 12004KT 10SM SCT005 BKN027 OVC042 23/23 A3003 RMK AO2
                 P0001 T02300225 =
2016-05-30 09:55 METAR KFYJ 301355Z AUTO 00000KT 4SM SCT007 BKN028 OVC048 23/23 A3004 RMK AO2
                 P0004 T02300225 =
2016-05-30 09:35 METAR KFYJ 301335Z AUTO 13003KT 4SM SCT013 BKN039 OVC065 23/23 A3004 RMK AO2
                 P0002 T02310225 =
2016-05-30 09:15 METAR KFYJ 301315Z AUTO 00000KT 5SM SCT004 BKN013 OVC039 23/23 A3004 RMK AO2
                 T02320225 =
2016-05-30 08:55 METAR KFYJ 301255Z AUTO 00000KT 7SM SCT005 SCT013 BKN070 24/23 A3004 RMK AO2
                 T02350227 =
2016-05-30 08:35 METAR KFYJ 301235Z AUTO 00000KT 5SM SCT005 SCT015 BKN060 23/23 A3003 RMK AO2
                 T02320226 =
2016-05-30 08:15 METAR KFYJ 301215Z AUTO 00000KT 3SM SCT005 BKN028 OVC047 23/23 A3003 RMK AO2
                 T02320226 =
2016-05-30 07:55 METAR KFYJ 301155Z AUTO 00000KT 4SM OVC005 23/23 A3003 RMK AO2 70028 T02300225
                 10231 20220 =
2016-05-30 07:35 METAR KFYJ 301135Z AUTO 00000KT 5SM OVC009 23/23 A3003 RMK AO2 T02300225 =
2016-05-30 07:15 METAR KFYJ 301115Z AUTO 00000KT 5SM OVC009 23/23 A3003 RMK AO2 T02300225 =
2016-05-30 06:55 METAR KFYJ 301055Z AUTO 00000KT 5SM OVC007 23/22 A3003 RMK AO2 T02280223 =
2016-05-30 06:35 METAR KFYJ 301035Z AUTO 00000KT 5SM OVC007 23/22 A3003 RMK AO2 T02270222 =
2016-05-30 06:15 METAR KFYJ 301015Z AUTO 00000KT 7SM OVC007 23/22 A3002 RMK AO2 T02260222 =
2016-05-30 05:55 METAR KFYJ 300955Z AUTO 00000KT 7SM OVC007 23/22 A3002 RMK AO2 T02260222 =
2016-05-30 05:35 METAR KFYJ 300935Z AUTO 00000KT 7SM OVC007 23/22 A3001 RMK AO2 T02250221 =
2016-05-30 05:15 METAR KFYJ 300915Z AUTO 00000KT 7SM OVC007 23/22 A3001 RMK AO2 T02250221 =
2016-05-30 04:55 METAR KFYJ 300855Z AUTO 00000KT 7SM OVC007 23/22 A3001 RMK AO2 T02260222 =
2016-05-30 04:35 METAR KFYJ 300835Z AUTO 00000KT 7SM BKN007 OVC011 23/22 A3001 RMK AO2 T02260222
                 =
2016-05-30 04:15 METAR KFYJ 300815Z AUTO 00000KT 7SM SCT007 OVC011 23/22 A3002 RMK AO2 T02260223
                 =
2016-05-30 03:55 METAR KFYJ 300755Z AUTO 00000KT 7SM SCT009 BKN013 23/22 A3001 RMK AO2 T02250221
                 =
2016-05-30 03:35 METAR KFYJ 300735Z AUTO 15003KT 7SM SCT009 SCT012 22/22 A3001 RMK AO2 T02220219
                 =
2016-05-30 03:15 METAR KFYJ 300715Z AUTO 00000KT 7SM BKN009 BKN014 BKN024 22/22 A3002 RMK AO2
                 T02210218 =
2016-05-30 02:55 METAR KFYJ 300655Z AUTO 00000KT 7SM BKN009 BKN014 OVC020 22/22 A3003 RMK AO2
                 T02210218 =
2016-05-30 02:35 METAR KFYJ 300635Z AUTO 00000KT 7SM SCT004 BKN010 OVC014 22/22 A3003 RMK AO2
                 T02210217 =
2016-05-30 02:15 METAR KFYJ 300615Z AUTO 00000KT 7SM SCT004 BKN010 OVC014 22/22 A3004 RMK AO2
                 T02200217 =
2016-05-30 01:55 METAR KFYJ 300555Z AUTO 00000KT 7SM SCT004 OVC010 22/22 A3004 RMK AO2 T02200216
                 10231 20215 402710156 =
2016-05-30 01:35 METAR KFYJ 300535Z AUTO 00000KT 5SM BKN004 OVC008 22/22 A3005 RMK AO2 T02180215
                 =
2016-05-30 01:15 METAR KFYJ 300515Z AUTO 00000KT 5SM SCT001 OVC006 22/22 A3005 RMK AO2 T02170215
                 =
2016-05-30 00:55 METAR KFYJ 300455Z AUTO 00000KT 4SM SCT001 BKN010 22/21 A3005 RMK AO2 T02160213
                 =
2016-05-30 00:35 METAR KFYJ 300435Z AUTO 09003KT 4SM BKN003 BKN009 22/21 A3005 RMK AO2 T02160212
                 =
2016-05-30 00:15 METAR KFYJ 300415Z AUTO 00000KT 5SM OVC003 22/22 A3005 RMK AO2 T02180215 =
2016-05-29 23:55 METAR KFYJ 300355Z AUTO 11004KT 4SM BKN005 BKN015 BKN022 22/21 A3004 RMK AO2
                 T02160212 =
2016-05-29 23:35 METAR KFYJ 300335Z AUTO 08003KT 4SM SCT003 BKN018 22/21 A3005 RMK AO2 T02160212
                 =
2016-05-29 23:15 METAR KFYJ 300315Z AUTO 00000KT 4SM BKN003 BKN018 22/22 A3006 RMK AO2 T02180215
                 =
2016-05-29 22:55 METAR KFYJ 300255Z AUTO 00000KT 5SM SCT003 SCT007 22/22 A3006 RMK AO2 T02200216
                 =
2016-05-29 22:35 METAR KFYJ 300235Z AUTO 00000KT 5SM BKN003 BKN007 22/22 A3006 RMK AO2 T02220217
                 =
2016-05-29 22:15 METAR KFYJ 300215Z AUTO 00000KT 7SM CLR 22/22 A3007 RMK AO2 T02230218 =
2016-05-29 21:55 METAR KFYJ 300155Z AUTO 10003KT 7SM CLR 23/22 A3006 RMK AO2 T02250220 =
2016-05-29 21:35 METAR KFYJ 300135Z AUTO 00000KT 5SM CLR 22/22 A3006 RMK AO2 T02230218 =
2016-05-29 21:15 METAR KFYJ 300115Z AUTO 00000KT 7SM SCT004 SCT009 22/22 A3006 RMK AO2 T02240218
                 =
2016-05-29 20:55 METAR KFYJ 300055Z AUTO 11003KT 7SM BKN006 BKN009 23/22 A3006 RMK AO2 T02260219
                 =
2016-05-29 20:35 METAR KFYJ 300035Z AUTO 11004KT 10SM OVC006 23/22 A3006 RMK AO2 T02270220 =
2016-05-29 20:15 METAR KFYJ 300015Z AUTO 08003KT 10SM BKN006 BKN070 23/22 A3006 RMK AO2 T02300220
                 =
2016-05-29 19:55 METAR KFYJ 292355Z AUTO 11004KT 10SM BKN006 BKN070 23/22 A3006 RMK AO2 60012
                 T02310221 10255 20231 =
2016-05-29 19:35 METAR KFYJ 292335Z AUTO 10004KT 10SM SCT008 SCT080 SCT090 23/22 A3006 RMK AO2
                 T02320221 =
2016-05-29 19:15 METAR KFYJ 292315Z AUTO 10004KT 10SM SCT020 SCT035 BKN085 24/22 A3006 RMK AO2
                 T02350223 =
2016-05-29 18:55 METAR KFYJ 292255Z AUTO 10004KT 4SM SCT011 BKN035 OVC044 24/22 A3006 RMK AO2
                 P0001 T02370224 =
2016-05-29 18:35 METAR KFYJ 292235Z AUTO 09004KT 10SM SCT007 BKN029 OVC046 24/23 A3006 RMK AO2
                 T02410225 =
2016-05-29 18:15 METAR KFYJ 292215Z AUTO 10006KT 10SM SCT007 BKN026 OVC032 24/23 A3006 RMK AO2
                 T02430225 =

Support USWX by starting your Amazon purchase here.